createdAt,value
2022-09-30T00:00:27.169Z,3.60
2022-09-30T00:01:27.156Z,3.60
2022-09-30T00:02:27.122Z,3.60
2022-09-30T00:03:27.208Z,3.50
2022-09-30T00:04:27.137Z,3.50
2022-09-30T00:05:27.150Z,143.20
2022-09-30T00:06:27.172Z,208.60
2022-09-30T00:07:27.166Z,173.50
2022-09-30T00:08:27.168Z,169.70
2022-09-30T00:09:27.195Z,179.10
2022-09-30T00:10:27.185Z,81.30
2022-09-30T00:11:27.192Z,19.50
2022-09-30T00:12:27.197Z,11.70
2022-09-30T00:13:27.252Z,3.90
2022-09-30T00:14:27.215Z,3.90
2022-09-30T00:15:27.226Z,4.00
2022-09-30T00:16:27.293Z,3.80
2022-09-30T00:17:27.235Z,3.70
2022-09-30T00:18:27.249Z,4.60
2022-09-30T00:19:27.253Z,3.80
2022-09-30T00:20:27.356Z,4.30
2022-09-30T00:21:27.267Z,3.70
2022-09-30T00:22:27.275Z,13.90
2022-09-30T00:23:27.284Z,73.10
2022-09-30T00:24:27.287Z,101.10
2022-09-30T00:25:27.293Z,65.40
2022-09-30T00:26:27.303Z,39.90
2022-09-30T00:27:27.320Z,53.00
2022-09-30T00:28:27.323Z,66.70
2022-09-30T00:29:27.364Z,114.50
2022-09-30T00:30:27.396Z,34.60
2022-09-30T00:31:27.418Z,57.20
2022-09-30T00:32:27.349Z,7.70
2022-09-30T00:33:27.356Z,72.20
2022-09-30T00:34:27.365Z,64.00
2022-09-30T00:35:27.376Z,49.50
2022-09-30T00:36:27.377Z,118.10
2022-09-30T00:37:27.382Z,123.50
2022-09-30T00:38:27.401Z,133.90
2022-09-30T00:39:27.448Z,118.30
2022-09-30T00:40:27.404Z,162.10
2022-09-30T00:41:27.417Z,127.70
2022-09-30T00:42:27.432Z,87.60
2022-09-30T00:43:27.431Z,131.30
2022-09-30T00:44:27.437Z,84.60
2022-09-30T00:45:27.474Z,73.30
2022-09-30T00:46:27.502Z,114.90
2022-09-30T00:47:27.463Z,129.60
2022-09-30T00:48:27.464Z,154.10
2022-09-30T00:49:27.474Z,100.40
2022-09-30T00:50:27.481Z,141.90
2022-09-30T00:51:27.494Z,163.10
2022-09-30T00:52:27.498Z,84.90
2022-09-30T00:53:27.509Z,80.10
2022-09-30T00:54:27.512Z,75.70
2022-09-30T00:55:27.519Z,62.00
2022-09-30T00:56:27.529Z,104.80
2022-09-30T00:57:27.533Z,163.30
2022-09-30T00:58:27.547Z,124.20
2022-09-30T00:59:27.561Z,109.50
2022-09-30T01:00:27.603Z,104.80
2022-09-30T01:01:27.597Z,143.00
2022-09-30T01:02:27.639Z,87.70
2022-09-30T01:03:27.579Z,89.80
2022-09-30T01:04:27.582Z,115.50
2022-09-30T01:05:27.610Z,153.70
2022-09-30T01:06:27.597Z,124.10
2022-09-30T01:07:27.609Z,82.30
2022-09-30T01:08:27.615Z,128.50
2022-09-30T01:09:27.685Z,129.10
2022-09-30T01:10:27.634Z,119.80
2022-09-30T01:11:27.640Z,124.80
2022-09-30T01:12:27.645Z,153.40
2022-09-30T01:13:27.654Z,147.30
2022-09-30T01:14:27.663Z,160.50
2022-09-30T01:15:27.668Z,185.90
2022-09-30T01:16:27.720Z,150.60
2022-09-30T01:17:27.709Z,137.20
2022-09-30T01:18:27.696Z,181.10
2022-09-30T01:19:27.701Z,121.20
2022-09-30T01:20:27.704Z,77.80
2022-09-30T01:21:27.714Z,208.80
2022-09-30T01:22:27.724Z,199.10
2022-09-30T01:23:27.827Z,260.50
2022-09-30T01:24:27.735Z,156.90
2022-09-30T01:25:27.739Z,122.10
2022-09-30T01:26:27.749Z,461.00
2022-09-30T01:27:27.760Z,424.70
2022-09-30T01:28:27.766Z,261.10
2022-09-30T01:29:27.770Z,112.50
2022-09-30T01:30:27.780Z,161.80
2022-09-30T01:31:27.848Z,118.10
2022-09-30T01:32:27.790Z,187.80
2022-09-30T01:33:27.819Z,100.80
2022-09-30T01:34:27.812Z,36.30
2022-09-30T01:35:27.815Z,26.40
2022-09-30T01:36:27.821Z,26.80
2022-09-30T01:37:27.828Z,76.50
2022-09-30T01:38:27.838Z,151.20
2022-09-30T01:39:27.845Z,14.90
2022-09-30T01:40:27.854Z,12.30
2022-09-30T01:41:27.860Z,7.20
2022-09-30T01:42:27.875Z,6.10
2022-09-30T01:43:27.876Z,4.40
2022-09-30T01:44:27.892Z,4.70
2022-09-30T01:45:27.888Z,4.60
2022-09-30T01:46:27.937Z,4.00
2022-09-30T01:47:27.902Z,4.10
2022-09-30T01:48:27.907Z,4.00
2022-09-30T01:49:27.938Z,3.80
2022-09-30T01:50:28.026Z,4.50
2022-09-30T01:51:27.929Z,11.30
2022-09-30T01:52:27.938Z,10.90
2022-09-30T01:53:27.942Z,4.00
2022-09-30T01:54:27.955Z,3.70
2022-09-30T01:55:27.960Z,3.70
2022-09-30T01:56:27.971Z,3.70
2022-09-30T01:57:27.971Z,3.60
2022-09-30T01:58:27.985Z,21.30
2022-09-30T01:59:27.991Z,62.40
2022-09-30T02:00:28.054Z,99.80
2022-09-30T02:01:28.005Z,320.30
2022-09-30T02:02:28.103Z,457.40
2022-09-30T02:03:28.015Z,258.40
2022-09-30T02:04:28.024Z,19.10
2022-09-30T02:05:28.058Z,23.30
2022-09-30T02:06:28.041Z,40.30
2022-09-30T02:07:28.049Z,108.60
2022-09-30T02:08:28.074Z,338.30
2022-09-30T02:09:28.139Z,385.50
2022-09-30T02:10:28.066Z,456.40
2022-09-30T02:11:28.075Z,418.50
2022-09-30T02:12:28.082Z,346.70
2022-09-30T02:13:28.088Z,79.80
2022-09-30T02:14:28.099Z,6.20
2022-09-30T02:15:28.101Z,5.70
2022-09-30T02:16:28.177Z,4.30
2022-09-30T02:17:28.118Z,9.20
2022-09-30T02:18:28.134Z,8.10
2022-09-30T02:19:28.149Z,20.00
2022-09-30T02:20:28.139Z,75.50
2022-09-30T02:21:28.172Z,17.80
2022-09-30T02:22:28.154Z,25.10
2022-09-30T02:23:28.159Z,5.20
2022-09-30T02:24:28.170Z,3.70
2022-09-30T02:25:28.176Z,3.90
2022-09-30T02:26:28.185Z,3.60
2022-09-30T02:27:28.189Z,3.60
2022-09-30T02:28:28.303Z,318.90
2022-09-30T02:29:28.206Z,429.60
2022-09-30T02:30:28.215Z,231.40
2022-09-30T02:31:28.256Z,155.50
2022-09-30T02:32:28.227Z,289.70
2022-09-30T02:33:28.235Z,165.70
2022-09-30T02:34:28.254Z,63.20
2022-09-30T02:35:28.302Z,43.30
2022-09-30T02:36:28.253Z,7.30
2022-09-30T02:37:28.288Z,3.90
2022-09-30T02:38:28.270Z,3.60
2022-09-30T02:39:28.277Z,3.80
2022-09-30T02:40:28.287Z,3.60
2022-09-30T02:41:28.292Z,3.50
2022-09-30T02:42:28.299Z,3.50
2022-09-30T02:43:28.310Z,3.70
2022-09-30T02:44:28.315Z,3.80
2022-09-30T02:45:28.319Z,4.40
2022-09-30T02:46:28.386Z,4.80
2022-09-30T02:47:28.334Z,26.30
2022-09-30T02:48:28.342Z,19.20
2022-09-30T02:49:28.347Z,58.70
2022-09-30T02:50:28.358Z,72.00
2022-09-30T02:51:28.368Z,77.20
2022-09-30T02:52:28.374Z,70.50
2022-09-30T02:53:28.403Z,187.20
2022-09-30T02:54:28.385Z,151.10
2022-09-30T02:55:28.393Z,42.80
2022-09-30T02:56:28.409Z,110.90
2022-09-30T02:57:28.413Z,51.20
2022-09-30T02:58:28.416Z,5.00
2022-09-30T02:59:28.420Z,3.70
2022-09-30T03:00:28.477Z,3.60
2022-09-30T03:01:28.434Z,49.60
2022-09-30T03:02:28.457Z,18.90
2022-09-30T03:03:28.449Z,15.80
2022-09-30T03:04:28.460Z,41.80
2022-09-30T03:05:28.464Z,67.70
2022-09-30T03:06:28.575Z,104.60
2022-09-30T03:07:28.490Z,106.40
2022-09-30T03:08:28.503Z,189.00
2022-09-30T03:09:28.604Z,132.70
2022-09-30T03:10:28.502Z,120.00
2022-09-30T03:11:28.520Z,82.30
2022-09-30T03:12:28.518Z,143.10
2022-09-30T03:13:28.527Z,183.60
2022-09-30T03:14:28.533Z,159.80
2022-09-30T03:15:28.538Z,182.80
2022-09-30T03:16:28.576Z,257.90
2022-09-30T03:17:28.602Z,185.20
2022-09-30T03:18:28.562Z,185.60
2022-09-30T03:19:28.568Z,259.60
2022-09-30T03:20:28.573Z,215.20
2022-09-30T03:21:28.580Z,222.00
2022-09-30T03:22:28.588Z,155.40
2022-09-30T03:23:28.597Z,184.90
2022-09-30T03:24:28.607Z,152.20
2022-09-30T03:25:28.630Z,128.10
2022-09-30T03:26:28.615Z,126.40
2022-09-30T03:27:28.626Z,167.10
2022-09-30T03:28:28.633Z,133.10
2022-09-30T03:29:28.634Z,161.30
2022-09-30T03:30:28.646Z,279.60
2022-09-30T03:31:28.751Z,263.40
2022-09-30T03:32:28.658Z,241.30
2022-09-30T03:33:28.680Z,188.00
2022-09-30T03:34:28.674Z,69.20
2022-09-30T03:35:28.685Z,94.20
2022-09-30T03:36:28.687Z,187.40
2022-09-30T03:37:28.699Z,246.50
2022-09-30T03:38:28.710Z,196.80
2022-09-30T03:39:28.711Z,187.00
2022-09-30T03:40:28.717Z,92.10
2022-09-30T03:41:28.753Z,156.70
2022-09-30T03:42:28.727Z,128.50
2022-09-30T03:43:28.739Z,152.50
2022-09-30T03:44:28.743Z,119.60
2022-09-30T03:45:28.750Z,192.40
2022-09-30T03:46:28.883Z,153.30
2022-09-30T03:47:28.762Z,197.00
2022-09-30T03:48:28.769Z,173.20
2022-09-30T03:49:28.784Z,118.90
2022-09-30T03:50:28.783Z,43.60
2022-09-30T03:51:28.794Z,55.90
2022-09-30T03:52:28.801Z,64.00
2022-09-30T03:53:28.807Z,92.90
2022-09-30T03:54:28.811Z,33.20
2022-09-30T03:55:28.823Z,38.80
2022-09-30T03:56:28.837Z,23.10
2022-09-30T03:57:28.868Z,32.60
2022-09-30T03:58:28.848Z,25.80
2022-09-30T03:59:28.847Z,11.80
2022-09-30T04:00:28.906Z,8.40
2022-09-30T04:01:28.860Z,5.20
2022-09-30T04:02:28.872Z,5.20
2022-09-30T04:03:28.883Z,6.90
2022-09-30T04:04:28.897Z,4.30
2022-09-30T04:05:28.894Z,4.70
2022-09-30T04:06:28.900Z,4.90
2022-09-30T04:07:28.917Z,3.70
2022-09-30T04:08:33.006Z,3.80
2022-09-30T04:09:28.963Z,3.80
2022-09-30T04:10:28.940Z,4.70
2022-09-30T04:11:28.942Z,4.40
2022-09-30T04:12:28.949Z,3.60
2022-09-30T04:13:28.977Z,3.80
2022-09-30T04:14:29.062Z,3.70
2022-09-30T04:15:28.962Z,3.80
2022-09-30T04:16:29.050Z,3.70
2022-09-30T04:17:28.989Z,3.60
2022-09-30T04:18:28.986Z,3.70
2022-09-30T04:19:28.991Z,4.50
2022-09-30T04:20:28.999Z,3.50
2022-09-30T04:21:29.004Z,4.00
2022-09-30T04:22:29.017Z,3.70
2022-09-30T04:23:29.018Z,3.60
2022-09-30T04:24:29.025Z,3.60
2022-09-30T04:25:29.034Z,5.20
2022-09-30T04:26:29.040Z,3.70
2022-09-30T04:27:29.051Z,3.70
2022-09-30T04:28:29.054Z,3.60
2022-09-30T04:29:29.085Z,3.80
2022-09-30T04:30:33.285Z,4.10
2022-09-30T04:31:29.147Z,3.80
2022-09-30T04:32:29.083Z,3.80
2022-09-30T04:33:29.087Z,3.50
2022-09-30T04:34:29.101Z,3.70
2022-09-30T04:35:29.110Z,3.80
2022-09-30T04:36:29.110Z,3.60
2022-09-30T04:37:29.117Z,3.80
2022-09-30T04:38:29.127Z,4.90
2022-09-30T04:39:29.133Z,3.90
2022-09-30T04:40:29.141Z,6.30
2022-09-30T04:41:29.147Z,10.40
2022-09-30T04:42:29.157Z,35.70
2022-09-30T04:43:29.165Z,6.10
2022-09-30T04:44:29.177Z,4.90
2022-09-30T04:45:29.237Z,4.80
2022-09-30T04:46:29.182Z,6.80
2022-09-30T04:47:29.191Z,5.60
2022-09-30T04:48:29.199Z,4.70
2022-09-30T04:49:29.208Z,4.50
2022-09-30T04:50:29.211Z,4.70
2022-09-30T04:51:29.220Z,4.20
2022-09-30T04:52:29.228Z,3.90
2022-09-30T04:53:29.231Z,4.40
2022-09-30T04:54:29.244Z,6.80
2022-09-30T04:55:29.249Z,4.10
2022-09-30T04:56:29.252Z,5.00
2022-09-30T04:57:29.263Z,4.00
2022-09-30T04:58:33.415Z,4.10
2022-09-30T04:59:29.283Z,9.00
2022-09-30T05:00:29.307Z,20.80
2022-09-30T05:01:29.316Z,45.90
2022-09-30T05:02:29.361Z,37.70
2022-09-30T05:03:29.304Z,36.40
2022-09-30T05:04:29.313Z,29.90
2022-09-30T05:05:29.315Z,9.00
2022-09-30T05:06:29.326Z,41.80
2022-09-30T05:07:29.332Z,7.10
2022-09-30T05:08:29.342Z,4.40
2022-09-30T05:09:29.398Z,25.80
2022-09-30T05:10:29.364Z,53.10
2022-09-30T05:11:29.367Z,15.50
2022-09-30T05:12:29.372Z,65.60
2022-09-30T05:13:29.379Z,40.80
2022-09-30T05:14:29.388Z,25.20
2022-09-30T05:15:29.392Z,45.50
2022-09-30T05:16:29.436Z,34.70
2022-09-30T05:17:29.443Z,42.40
2022-09-30T05:18:29.412Z,54.10
2022-09-30T05:19:29.425Z,26.20
2022-09-30T05:20:29.426Z,4.70
2022-09-30T05:21:29.436Z,4.00
2022-09-30T05:22:29.444Z,12.60
2022-09-30T05:23:29.449Z,35.20
2022-09-30T05:24:29.455Z,23.80
2022-09-30T05:25:29.462Z,19.40
2022-09-30T05:26:29.471Z,44.00
2022-09-30T05:27:29.482Z,27.00
2022-09-30T05:28:29.484Z,16.30
2022-09-30T05:29:29.494Z,21.30
2022-09-30T05:30:29.499Z,96.90
2022-09-30T05:31:29.590Z,157.20
2022-09-30T05:32:29.513Z,231.70
2022-09-30T05:33:29.568Z,241.40
2022-09-30T05:34:29.529Z,310.00
2022-09-30T05:35:29.540Z,134.20
2022-09-30T05:36:29.546Z,79.70
2022-09-30T05:37:29.650Z,167.20
2022-09-30T05:38:29.557Z,301.00
2022-09-30T05:39:29.567Z,262.60
2022-09-30T05:40:29.572Z,167.50
2022-09-30T05:41:29.578Z,232.60
2022-09-30T05:42:29.589Z,133.60
2022-09-30T05:43:29.595Z,132.60
2022-09-30T05:44:29.598Z,235.50
2022-09-30T05:45:29.610Z,200.40
2022-09-30T05:46:29.679Z,120.40
2022-09-30T05:47:29.621Z,141.60
2022-09-30T05:48:29.628Z,150.80
2022-09-30T05:49:29.669Z,124.70
2022-09-30T05:50:29.643Z,128.10
2022-09-30T05:51:29.649Z,116.80
2022-09-30T05:52:29.658Z,131.50
2022-09-30T05:53:29.666Z,119.90
2022-09-30T05:54:29.672Z,136.30
2022-09-30T05:55:29.676Z,216.30
2022-09-30T05:56:29.688Z,180.50
2022-09-30T05:57:29.689Z,166.80
2022-09-30T05:58:29.704Z,157.60
2022-09-30T05:59:29.707Z,168.30
2022-09-30T06:00:29.714Z,218.90
2022-09-30T06:01:29.786Z,133.80
2022-09-30T06:02:29.911Z,203.90
2022-09-30T06:03:29.732Z,255.30
2022-09-30T06:04:29.742Z,339.10
2022-09-30T06:05:29.771Z,372.90
2022-09-30T06:06:29.752Z,365.30
2022-09-30T06:07:29.759Z,273.70
2022-09-30T06:08:29.765Z,236.60
2022-09-30T06:09:29.844Z,418.10
2022-09-30T06:10:29.781Z,519.50
2022-09-30T06:11:29.786Z,372.90
2022-09-30T06:12:29.804Z,251.60
2022-09-30T06:13:29.803Z,193.10
2022-09-30T06:14:29.808Z,298.10
2022-09-30T06:15:29.813Z,167.10
2022-09-30T06:16:29.931Z,261.50
2022-09-30T06:17:29.829Z,176.30
2022-09-30T06:18:29.834Z,158.30
2022-09-30T06:19:29.860Z,162.80
2022-09-30T06:20:29.847Z,148.70
2022-09-30T06:21:29.881Z,147.50
2022-09-30T06:22:29.857Z,117.20
2022-09-30T06:23:29.869Z,150.40
2022-09-30T06:24:29.874Z,227.90
2022-09-30T06:25:29.880Z,137.80
2022-09-30T06:26:29.887Z,156.20
2022-09-30T06:27:29.892Z,90.70
2022-09-30T06:28:29.903Z,64.40
2022-09-30T06:29:29.943Z,31.40
2022-09-30T06:30:34.925Z,71.00
2022-09-30T06:31:29.966Z,95.40
2022-09-30T06:32:29.931Z,158.20
2022-09-30T06:33:29.932Z,303.30
2022-09-30T06:34:29.938Z,465.10
2022-09-30T06:35:29.948Z,523.10
2022-09-30T06:36:29.951Z,531.20
2022-09-30T06:37:29.986Z,521.50
2022-09-30T06:38:29.968Z,490.60
2022-09-30T06:39:29.992Z,372.10
2022-09-30T06:40:29.979Z,235.50
2022-09-30T06:41:29.986Z,278.10
2022-09-30T06:42:29.990Z,111.10
2022-09-30T06:43:30.001Z,92.00
2022-09-30T06:44:30.015Z,105.20
2022-09-30T06:45:32.890Z,104.70
2022-09-30T06:46:31.467Z,93.60
2022-09-30T06:47:30.084Z,121.20
2022-09-30T06:48:37.409Z,86.60
2022-09-30T06:49:41.935Z,51.60
2022-09-30T06:50:30.051Z,99.40
2022-09-30T06:51:30.048Z,109.00
2022-09-30T06:52:30.061Z,123.20
2022-09-30T06:53:30.086Z,133.20
2022-09-30T06:54:30.069Z,100.80
2022-09-30T06:55:30.084Z,56.50
2022-09-30T06:56:30.083Z,115.10
2022-09-30T06:57:30.088Z,58.80
2022-09-30T06:58:30.095Z,59.20
2022-09-30T06:59:30.113Z,148.60
2022-09-30T07:00:30.115Z,40.30
2022-09-30T07:01:30.223Z,18.70
2022-09-30T07:02:30.192Z,273.40
2022-09-30T07:03:30.127Z,307.50
2022-09-30T07:04:30.232Z,396.20
2022-09-30T07:05:30.147Z,365.80
2022-09-30T07:06:30.155Z,199.80
2022-09-30T07:07:30.154Z,96.30
2022-09-30T07:08:30.161Z,303.80
2022-09-30T07:09:30.257Z,285.30
2022-09-30T07:10:30.175Z,341.70
2022-09-30T07:11:30.181Z,536.70
2022-09-30T07:12:30.191Z,463.40
2022-09-30T07:13:30.196Z,281.60
2022-09-30T07:14:30.261Z,386.90
2022-09-30T07:15:30.209Z,279.70
2022-09-30T07:16:30.268Z,245.70
2022-09-30T07:17:30.222Z,249.20
2022-09-30T07:18:30.231Z,222.50
2022-09-30T07:19:30.234Z,290.30
2022-09-30T07:20:30.243Z,238.90
2022-09-30T07:21:30.250Z,286.80
2022-09-30T07:22:30.255Z,352.70
2022-09-30T07:23:30.262Z,262.60
2022-09-30T07:24:30.370Z,287.30
2022-09-30T07:25:30.304Z,179.20
2022-09-30T07:26:30.285Z,112.70
2022-09-30T07:27:30.288Z,136.50
2022-09-30T07:28:30.297Z,169.00
2022-09-30T07:29:44.424Z,159.10
2022-09-30T07:30:30.324Z,110.90
2022-09-30T07:31:33.657Z,155.70
2022-09-30T07:32:30.381Z,97.50
2022-09-30T07:33:30.329Z,49.60
2022-09-30T07:34:30.335Z,99.50
2022-09-30T07:35:30.344Z,133.50
2022-09-30T07:36:33.158Z,60.60
2022-09-30T07:37:30.354Z,17.60
2022-09-30T07:38:30.363Z,7.00
2022-09-30T07:39:30.367Z,6.10
2022-09-30T07:40:30.375Z,5.30
2022-09-30T07:41:30.403Z,20.40
2022-09-30T07:42:30.390Z,153.10
2022-09-30T07:43:30.396Z,185.00
2022-09-30T07:44:30.402Z,236.60
2022-09-30T07:45:30.481Z,198.60
2022-09-30T07:46:30.416Z,260.80
2022-09-30T07:47:30.420Z,262.30
2022-09-30T07:48:30.432Z,199.90
2022-09-30T07:49:30.433Z,46.40
2022-09-30T07:50:30.472Z,10.20
2022-09-30T07:51:30.483Z,7.00
2022-09-30T07:52:30.470Z,8.90
2022-09-30T07:53:30.486Z,7.10
2022-09-30T07:54:30.497Z,47.40
2022-09-30T07:55:30.503Z,150.30
2022-09-30T07:56:45.614Z,16.30
2022-09-30T07:57:30.521Z,7.30
2022-09-30T07:58:30.553Z,5.40
2022-09-30T07:59:30.510Z,6.10
2022-09-30T08:00:42.263Z,4.40
2022-09-30T08:01:30.592Z,72.80
2022-09-30T08:02:30.586Z,310.80
2022-09-30T08:03:30.536Z,141.30
2022-09-30T08:04:30.545Z,137.10
2022-09-30T08:05:30.548Z,181.20
2022-09-30T08:06:30.559Z,46.30
2022-09-30T08:07:30.565Z,13.90
2022-09-30T08:08:30.676Z,5.90
2022-09-30T08:09:30.971Z,6.80
2022-09-30T08:10:30.593Z,27.00
2022-09-30T08:11:30.596Z,205.20
2022-09-30T08:12:30.605Z,60.30
2022-09-30T08:13:30.647Z,27.80
2022-09-30T08:14:30.622Z,12.60
2022-09-30T08:15:30.629Z,49.40
2022-09-30T08:16:30.667Z,133.00
2022-09-30T08:17:30.641Z,102.30
2022-09-30T08:18:30.651Z,211.30
2022-09-30T08:19:30.674Z,374.50
2022-09-30T08:20:30.668Z,120.80
2022-09-30T08:21:30.679Z,115.50
2022-09-30T08:22:30.682Z,290.90
2022-09-30T08:23:30.684Z,274.10
2022-09-30T08:24:30.698Z,261.60
2022-09-30T08:25:30.700Z,248.60
2022-09-30T08:26:30.711Z,284.80
2022-09-30T08:27:30.764Z,129.90
2022-09-30T08:28:30.726Z,113.00
2022-09-30T08:30:03.666Z,91.40
2022-09-30T08:30:30.742Z,71.20
2022-09-30T08:31:30.810Z,57.40
2022-09-30T08:32:30.752Z,27.90
2022-09-30T08:33:30.762Z,156.20
2022-09-30T08:34:30.770Z,271.80
2022-09-30T08:35:30.780Z,280.90
2022-09-30T08:36:30.796Z,8.80
2022-09-30T08:37:30.798Z,4.90
2022-09-30T08:38:30.800Z,94.50
2022-09-30T08:39:30.808Z,178.70
2022-09-30T08:40:30.818Z,297.00
2022-09-30T08:41:30.822Z,305.70
2022-09-30T08:42:40.315Z,334.40
2022-09-30T08:43:30.838Z,314.40
2022-09-30T08:44:30.848Z,352.10
2022-09-30T08:45:30.984Z,376.80
2022-09-30T08:46:30.863Z,384.00
2022-09-30T08:47:30.865Z,278.00
2022-09-30T08:48:30.878Z,370.10
2022-09-30T08:49:30.884Z,341.80
2022-09-30T08:50:30.893Z,278.60
2022-09-30T08:51:30.903Z,273.10
2022-09-30T08:52:47.720Z,339.60
2022-09-30T08:53:30.916Z,375.70
2022-09-30T08:54:30.923Z,376.00
2022-09-30T08:55:30.933Z,284.00
2022-09-30T08:56:30.940Z,341.70
2022-09-30T08:57:30.946Z,379.00
2022-09-30T08:58:31.014Z,452.00
2022-09-30T08:59:30.980Z,335.90
2022-09-30T09:00:30.978Z,247.50
2022-09-30T09:01:31.107Z,137.40
2022-09-30T09:02:31.056Z,352.60
2022-09-30T09:03:30.998Z,411.40
2022-09-30T09:04:31.038Z,285.40
2022-09-30T09:05:31.004Z,313.70
2022-09-30T09:06:31.024Z,354.20
2022-09-30T09:07:31.022Z,383.80
2022-09-30T09:08:31.032Z,393.30
2022-09-30T09:09:31.082Z,329.80
2022-09-30T09:10:31.043Z,210.80
2022-09-30T09:11:31.050Z,232.90
2022-09-30T09:12:31.085Z,251.10
2022-09-30T09:13:31.065Z,136.20
2022-09-30T09:14:31.077Z,8.40
2022-09-30T09:15:31.083Z,4.70
2022-09-30T09:16:31.160Z,118.40
2022-09-30T09:17:31.122Z,59.90
2022-09-30T09:18:31.113Z,239.40
2022-09-30T09:19:31.115Z,503.20
2022-09-30T09:20:31.117Z,561.40
2022-09-30T09:21:31.126Z,361.40
2022-09-30T09:22:31.134Z,592.60
2022-09-30T09:23:31.144Z,375.80
2022-09-30T09:24:31.148Z,366.40
2022-09-30T09:25:31.158Z,512.90
2022-09-30T09:26:31.169Z,186.90
2022-09-30T09:28:31.277Z,251.30
2022-09-30T09:29:31.193Z,123.40
2022-09-30T09:30:31.199Z,184.40
2022-09-30T09:31:31.268Z,57.00
2022-09-30T09:32:31.213Z,6.40
2022-09-30T09:33:31.246Z,5.40
2022-09-30T09:34:31.227Z,4.80
2022-09-30T09:35:31.240Z,5.60
2022-09-30T09:36:31.245Z,5.40
2022-09-30T09:37:31.250Z,4.50
2022-09-30T09:38:31.259Z,199.20
2022-09-30T09:39:31.269Z,48.00
2022-09-30T09:40:31.276Z,8.20
2022-09-30T09:41:31.284Z,4.90
2022-09-30T09:42:31.334Z,20.70
2022-09-30T09:43:31.298Z,4.80
2022-09-30T09:44:31.315Z,63.10
2022-09-30T09:45:31.431Z,7.20
2022-09-30T09:46:31.326Z,72.50
2022-09-30T09:47:31.331Z,284.10
2022-09-30T09:48:31.341Z,336.30
2022-09-30T09:49:31.374Z,293.00
2022-09-30T09:50:31.361Z,249.20
2022-09-30T09:51:31.379Z,90.00
2022-09-30T09:52:31.374Z,93.00
2022-09-30T09:53:31.379Z,115.60
2022-09-30T09:54:31.392Z,530.10
2022-09-30T09:55:31.401Z,442.20
2022-09-30T09:56:32.685Z,374.20
2022-09-30T09:57:31.418Z,233.00
2022-09-30T09:58:31.426Z,173.70
2022-09-30T09:59:31.435Z,233.40
2022-09-30T10:00:31.444Z,306.60
2022-09-30T10:01:31.492Z,387.50
2022-09-30T10:02:31.572Z,531.70
2022-09-30T10:03:31.465Z,518.20
2022-09-30T10:04:31.472Z,519.40
2022-09-30T10:05:31.510Z,478.70
2022-09-30T10:06:31.497Z,688.00
2022-09-30T10:07:31.504Z,521.30
2022-09-30T10:08:31.511Z,697.40
2022-09-30T10:09:31.533Z,539.60
2022-09-30T10:10:31.526Z,548.40
2022-09-30T10:11:31.532Z,513.90
2022-09-30T10:12:31.542Z,539.00
2022-09-30T10:13:31.551Z,661.60
2022-09-30T10:14:31.563Z,657.90
2022-09-30T10:15:31.566Z,762.10
2022-09-30T10:16:31.577Z,585.40
2022-09-30T10:17:31.582Z,476.30
2022-09-30T10:18:31.594Z,350.00
2022-09-30T10:19:31.603Z,19.50
2022-09-30T10:20:31.604Z,4.60
2022-09-30T10:21:31.656Z,70.30
2022-09-30T10:22:31.625Z,61.80
2022-09-30T10:23:31.633Z,21.30
2022-09-30T10:24:31.652Z,17.00
2022-09-30T10:25:31.648Z,4.50
2022-09-30T10:26:31.664Z,5.60
2022-09-30T10:27:31.663Z,4.30
2022-09-30T10:28:31.807Z,18.60
2022-09-30T10:29:31.683Z,4.50
2022-09-30T10:30:31.692Z,67.10
2022-09-30T10:31:31.769Z,163.40
2022-09-30T10:32:31.712Z,188.10
2022-09-30T10:33:31.718Z,299.20
2022-09-30T10:34:31.728Z,196.60
2022-09-30T10:35:31.735Z,381.10
2022-09-30T10:36:31.743Z,203.70
2022-09-30T10:37:31.846Z,281.20
2022-09-30T10:38:31.831Z,510.20
2022-09-30T10:39:31.777Z,249.70
2022-09-30T10:40:31.799Z,393.50
2022-09-30T10:41:31.787Z,328.30
2022-09-30T10:42:31.808Z,191.10
2022-09-30T10:43:31.801Z,46.80
2022-09-30T10:44:31.811Z,26.90
2022-09-30T10:45:31.894Z,11.00
2022-09-30T10:46:31.935Z,177.30
2022-09-30T10:47:36.690Z,384.40
2022-09-30T10:48:31.844Z,295.10
2022-09-30T10:49:31.853Z,102.30
2022-09-30T10:50:31.862Z,280.00
2022-09-30T10:51:31.874Z,187.30
2022-09-30T10:52:31.873Z,240.30
2022-09-30T10:53:31.931Z,99.50
2022-09-30T10:54:31.895Z,68.10
2022-09-30T10:55:31.938Z,5.60
2022-09-30T10:56:31.915Z,12.90
2022-09-30T10:57:31.919Z,6.30
2022-09-30T10:58:31.926Z,4.70
2022-09-30T10:59:31.936Z,5.10
2022-09-30T11:00:31.944Z,4.10
2022-09-30T11:01:32.000Z,5.10
2022-09-30T11:02:31.966Z,5.00
2022-09-30T11:03:32.009Z,4.10
2022-09-30T11:04:31.975Z,3.90
2022-09-30T11:05:31.994Z,4.90
2022-09-30T11:06:31.997Z,37.60
2022-09-30T11:07:32.009Z,45.80
2022-09-30T11:08:32.018Z,62.10
2022-09-30T11:09:32.050Z,80.80
2022-09-30T11:10:32.031Z,60.50
2022-09-30T11:11:32.044Z,60.40
2022-09-30T11:12:32.043Z,69.30
2022-09-30T11:13:32.055Z,6.10
2022-09-30T11:14:32.061Z,4.70
2022-09-30T11:15:32.073Z,5.30
2022-09-30T11:16:32.350Z,4.80
2022-09-30T11:17:32.092Z,5.30
2022-09-30T11:18:32.103Z,5.00
2022-09-30T11:19:32.104Z,4.50
2022-09-30T11:20:32.116Z,64.50
2022-09-30T11:21:32.125Z,323.90
2022-09-30T11:22:32.130Z,56.60
2022-09-30T11:23:32.137Z,5.00
2022-09-30T11:24:32.166Z,4.50
2022-09-30T11:25:32.179Z,4.50
2022-09-30T11:26:32.184Z,6.90
2022-09-30T11:27:32.175Z,7.90
2022-09-30T11:28:32.282Z,5.20
2022-09-30T11:29:32.191Z,4.80
2022-09-30T11:30:32.196Z,4.00
2022-09-30T11:31:32.272Z,5.10
2022-09-30T11:32:32.212Z,3.80
2022-09-30T11:33:32.224Z,5.10
2022-09-30T11:34:32.293Z,5.20
2022-09-30T11:35:32.244Z,6.70
2022-09-30T11:36:32.248Z,6.90
2022-09-30T11:37:32.257Z,5.90
2022-09-30T11:38:32.271Z,8.90
2022-09-30T11:39:32.274Z,97.30
2022-09-30T11:40:32.317Z,113.80
2022-09-30T11:41:32.324Z,7.10
2022-09-30T11:42:32.302Z,16.60
2022-09-30T11:43:32.318Z,7.50
2022-09-30T11:44:32.316Z,5.60
2022-09-30T11:45:32.425Z,5.40
2022-09-30T11:46:32.333Z,15.80
2022-09-30T11:47:32.347Z,5.10
2022-09-30T11:48:33.057Z,5.30
2022-09-30T11:49:32.363Z,21.60
2022-09-30T11:50:32.373Z,62.10
2022-09-30T11:51:32.382Z,6.70
2022-09-30T11:52:32.391Z,5.00
2022-09-30T11:53:32.401Z,258.50
2022-09-30T11:54:32.508Z,157.50
2022-09-30T11:55:32.416Z,285.10
2022-09-30T11:56:32.424Z,716.50
2022-09-30T11:57:32.453Z,418.90
2022-09-30T11:58:47.822Z,339.20
2022-09-30T11:59:32.451Z,228.90
2022-09-30T12:00:32.459Z,49.40
2022-09-30T12:01:32.465Z,116.90
2022-09-30T12:02:32.486Z,194.90
2022-09-30T12:03:32.541Z,43.10
2022-09-30T12:04:32.491Z,5.80
2022-09-30T12:05:32.515Z,9.70
2022-09-30T12:06:32.688Z,73.90
2022-09-30T12:07:32.517Z,6.20
2022-09-30T12:08:32.528Z,5.30
2022-09-30T12:09:32.535Z,6.00
2022-09-30T12:10:32.548Z,7.60
2022-09-30T12:11:32.556Z,4.20
2022-09-30T12:12:32.564Z,5.70
2022-09-30T12:13:32.598Z,12.70
2022-09-30T12:14:32.584Z,54.30
2022-09-30T12:15:32.590Z,7.40
2022-09-30T12:16:33.178Z,6.40
2022-09-30T12:17:32.622Z,364.40
2022-09-30T12:18:32.615Z,629.60
2022-09-30T12:19:32.629Z,1077.80
2022-09-30T12:20:32.637Z,466.60
2022-09-30T12:21:32.642Z,346.20
2022-09-30T12:22:32.650Z,12.80
2022-09-30T12:23:32.665Z,9.00
2022-09-30T12:24:32.672Z,145.10
2022-09-30T12:25:32.680Z,17.10
2022-09-30T12:26:32.704Z,4.00
2022-09-30T12:27:32.697Z,6.20
2022-09-30T12:28:32.706Z,4.00
2022-09-30T12:29:32.800Z,4.20
2022-09-30T12:30:32.727Z,4.90
2022-09-30T12:31:32.789Z,37.80
2022-09-30T12:32:32.743Z,113.00
2022-09-30T12:33:32.752Z,18.90
2022-09-30T12:34:32.765Z,5.80
2022-09-30T12:35:32.769Z,8.90
2022-09-30T12:36:32.859Z,101.50
2022-09-30T12:37:32.789Z,143.70
2022-09-30T12:38:32.793Z,65.20
2022-09-30T12:39:32.810Z,23.20
2022-09-30T12:40:32.818Z,4.70
2022-09-30T12:41:32.802Z,19.60
2022-09-30T12:42:32.833Z,9.70
2022-09-30T12:43:32.836Z,4.90
2022-09-30T12:44:32.849Z,4.60
2022-09-30T12:45:32.965Z,4.60
2022-09-30T12:46:33.002Z,4.70
2022-09-30T12:47:32.881Z,4.50
2022-09-30T12:48:32.889Z,4.50